Elba, Minnesota
Current Conditions -  °F | °C
As of 6:13 AM on Saturday 25 Oct 2014 (Local Time) from KONA Reporting Station
Clear Clear  
Wind Chill: 46°   Ceiling: Unl
Heat Index: 48°   Visibility: 10mi
Dew Point: 45°   Wind: 6mph
Humidity: 87%   Direction: 320°NW
Pressure: 29.96"   Gusts: NA
Location:  44.1503°N, 91.9879°W
Report Text: KONA 251113Z AUTO 32005KT 10SM CLR 09/07 A2996 RMK AO2
Loading
Personal Weather Stations






























Interactive Weather Map New forecast layout! Learn more

10-Day Weather Forecast

Advertisements
Track Severe Weather on mobile